createdAt,value
2023-05-07T00:02:20.046Z,5.91
2023-05-07T00:04:47.244Z,5.87
2023-05-07T00:07:14.320Z,5.84
2023-05-07T00:09:41.551Z,5.81
2023-05-07T00:12:08.757Z,5.79
2023-05-07T00:14:35.750Z,5.74
2023-05-07T00:17:02.816Z,5.69
2023-05-07T00:19:29.866Z,5.63
2023-05-07T00:21:57.663Z,5.58
2023-05-07T00:24:24.792Z,5.54
2023-05-07T00:26:52.282Z,5.50
2023-05-07T00:29:19.540Z,5.46
2023-05-07T00:31:46.602Z,5.40
2023-05-07T00:34:13.779Z,5.34
2023-05-07T00:36:41.426Z,5.29
2023-05-07T00:39:08.441Z,5.24
2023-05-07T00:41:36.054Z,5.18
2023-05-07T00:44:03.898Z,5.14
2023-05-07T00:46:31.537Z,5.09
2023-05-07T00:48:58.653Z,5.05
2023-05-07T00:51:28.524Z,5.03
2023-05-07T00:53:55.769Z,5.00
2023-05-07T00:56:23.492Z,4.94
2023-05-07T00:58:50.679Z,4.90
2023-05-07T01:01:17.914Z,4.87
2023-05-07T01:03:45.077Z,4.82
2023-05-07T01:06:14.032Z,4.79
2023-05-07T01:08:42.133Z,4.75
2023-05-07T01:11:09.329Z,4.70
2023-05-07T01:13:36.552Z,4.66
2023-05-07T01:16:04.227Z,4.64
2023-05-07T01:18:31.499Z,4.60
2023-05-07T01:20:59.671Z,4.57
2023-05-07T01:23:27.477Z,4.53
2023-05-07T01:25:55.358Z,4.50
2023-05-07T01:28:23.655Z,4.47
2023-05-07T01:30:54.120Z,4.46
2023-05-07T01:33:25.271Z,4.42
2023-05-07T01:35:54.236Z,4.40
2023-05-07T01:38:22.887Z,4.36
2023-05-07T01:40:49.870Z,4.34
2023-05-07T01:43:17.046Z,4.31
2023-05-07T01:45:45.677Z,4.30
2023-05-07T01:48:13.140Z,4.28
2023-05-07T01:51:22.740Z,4.26
2023-05-07T01:53:52.158Z,4.22
2023-05-07T01:56:20.317Z,4.19
2023-05-07T01:58:47.809Z,4.16
2023-05-07T02:01:15.562Z,4.14
2023-05-07T02:03:43.072Z,4.13
2023-05-07T02:06:13.951Z,4.12
2023-05-07T02:08:41.093Z,4.13
2023-05-07T02:11:08.406Z,4.12
2023-05-07T02:13:36.425Z,4.12
2023-05-07T02:16:04.278Z,4.13
2023-05-07T02:18:31.831Z,4.13
2023-05-07T02:20:59.353Z,4.13
2023-05-07T02:23:26.520Z,4.13
2023-05-07T02:25:53.640Z,4.11
2023-05-07T02:28:20.678Z,4.09
2023-05-07T02:30:53.871Z,4.08
2023-05-07T02:33:21.408Z,4.07
2023-05-07T02:35:48.464Z,4.07
2023-05-07T02:38:16.324Z,4.06
2023-05-07T02:40:44.200Z,4.14
2023-05-07T02:43:11.246Z,4.36
2023-05-07T02:45:38.982Z,4.62
2023-05-07T02:48:07.713Z,4.85
2023-05-07T02:50:34.887Z,4.93
2023-05-07T02:53:02.004Z,4.96
2023-05-07T02:55:29.375Z,4.99
2023-05-07T02:57:56.642Z,4.98
2023-05-07T03:00:24.862Z,4.95
2023-05-07T03:03:18.313Z,4.96
2023-05-07T03:05:45.610Z,4.91
2023-05-07T03:08:12.648Z,4.88
2023-05-07T03:10:39.807Z,4.88
2023-05-07T03:13:07.064Z,4.93
2023-05-07T03:15:34.307Z,5.03
2023-05-07T03:18:01.503Z,5.26
2023-05-07T03:20:28.657Z,5.65
2023-05-07T03:22:56.276Z,6.12
2023-05-07T03:25:23.401Z,6.64
2023-05-07T03:27:50.718Z,7.11
2023-05-07T03:30:19.959Z,7.53
2023-05-07T03:32:47.182Z,7.91
2023-05-07T03:35:14.434Z,8.16
2023-05-07T03:37:41.828Z,8.37
2023-05-07T03:40:11.987Z,8.68
2023-05-07T03:42:44.850Z,8.95
2023-05-07T03:45:12.758Z,9.14
2023-05-07T03:47:42.271Z,9.28
2023-05-07T03:50:11.701Z,9.45
2023-05-07T03:52:39.136Z,9.50
2023-05-07T03:55:08.154Z,9.55
2023-05-07T03:57:36.049Z,9.55
2023-05-07T04:00:04.908Z,9.48
2023-05-07T04:02:35.193Z,9.46
2023-05-07T04:05:03.358Z,9.64
2023-05-07T04:07:30.438Z,9.83
2023-05-07T04:09:57.611Z,10.08
2023-05-07T04:12:24.910Z,10.30
2023-05-07T04:14:52.304Z,10.27
2023-05-07T04:17:19.359Z,10.17
2023-05-07T04:19:46.868Z,10.29
2023-05-07T04:22:14.929Z,10.41
2023-05-07T04:24:41.919Z,10.49
2023-05-07T04:27:09.978Z,10.63
2023-05-07T04:29:37.024Z,10.81
2023-05-07T04:32:04.226Z,10.80
2023-05-07T04:34:31.636Z,10.82
2023-05-07T04:37:00.744Z,10.92
2023-05-07T04:39:28.000Z,11.05
2023-05-07T04:41:55.045Z,11.20
2023-05-07T04:44:22.068Z,11.28
2023-05-07T04:46:49.306Z,11.26
2023-05-07T04:49:16.900Z,11.47
2023-05-07T04:51:45.013Z,11.59
2023-05-07T04:54:12.859Z,11.71
2023-05-07T04:56:39.828Z,11.85
2023-05-07T04:59:06.968Z,11.81
2023-05-07T05:01:34.429Z,11.69
2023-05-07T05:04:01.849Z,11.54
2023-05-07T05:06:30.132Z,11.50
2023-05-07T05:08:57.219Z,11.55
2023-05-07T05:11:25.353Z,11.70
2023-05-07T05:13:52.737Z,11.80
2023-05-07T05:16:21.129Z,11.79
2023-05-07T05:18:48.573Z,11.66
2023-05-07T05:21:17.412Z,11.60
2023-05-07T05:23:45.445Z,11.65
2023-05-07T05:26:13.328Z,11.67
2023-05-07T05:28:40.542Z,11.63
2023-05-07T05:31:07.694Z,11.58
2023-05-07T05:33:36.241Z,11.38
2023-05-07T05:36:05.424Z,11.24
2023-05-07T05:38:33.313Z,11.37
2023-05-07T05:41:01.158Z,11.46
2023-05-07T05:43:29.225Z,11.39
2023-05-07T05:45:57.207Z,11.31
2023-05-07T05:48:24.726Z,11.25
2023-05-07T05:50:52.026Z,11.33
2023-05-07T05:53:19.193Z,11.34
2023-05-07T05:55:46.373Z,11.23
2023-05-07T05:58:13.479Z,11.05
2023-05-07T06:00:43.220Z,10.72
2023-05-07T06:03:10.232Z,10.55
2023-05-07T06:05:37.308Z,10.51
2023-05-07T06:08:04.806Z,10.50
2023-05-07T06:10:33.661Z,10.55
2023-05-07T06:13:01.058Z,10.56
2023-05-07T06:15:29.140Z,10.59
2023-05-07T06:17:58.793Z,10.60
2023-05-07T06:20:25.978Z,10.54
2023-05-07T06:22:53.750Z,10.49
2023-05-07T06:25:21.451Z,10.49
2023-05-07T06:27:49.038Z,10.66
2023-05-07T06:30:16.252Z,10.89
2023-05-07T06:32:43.340Z,11.03
2023-05-07T06:35:11.450Z,11.04
2023-05-07T06:37:40.776Z,11.15
2023-05-07T06:40:10.021Z,11.19
2023-05-07T06:42:38.972Z,11.36
2023-05-07T06:45:26.444Z,11.42
2023-05-07T06:47:54.787Z,11.35
2023-05-07T06:50:22.888Z,11.37
2023-05-07T06:52:50.934Z,11.43
2023-05-07T06:55:18.154Z,11.35
2023-05-07T06:57:45.487Z,11.33
2023-05-07T07:00:13.602Z,11.46
2023-05-07T07:02:51.441Z,11.63
2023-05-07T07:05:20.807Z,11.62
2023-05-07T07:07:53.944Z,11.62
2023-05-07T07:10:22.162Z,11.64
2023-05-07T07:12:50.505Z,11.71
2023-05-07T07:15:18.069Z,11.75
2023-05-07T07:17:46.209Z,11.80
2023-05-07T07:20:13.791Z,11.84
2023-05-07T07:22:41.281Z,11.83
2023-05-07T07:25:10.821Z,11.89
2023-05-07T07:27:38.838Z,12.09
2023-05-07T07:30:07.987Z,12.16
2023-05-07T07:32:36.458Z,12.28
2023-05-07T07:35:03.891Z,12.41
2023-05-07T07:37:30.981Z,12.46
2023-05-07T07:39:58.315Z,12.43
2023-05-07T07:42:26.223Z,12.37
2023-05-07T07:44:53.676Z,12.30
2023-05-07T07:47:22.266Z,12.30
2023-05-07T07:49:49.628Z,12.40
2023-05-07T07:52:16.814Z,12.63
2023-05-07T07:54:44.615Z,12.88
2023-05-07T07:57:11.738Z,12.99
2023-05-07T07:59:38.785Z,12.99
2023-05-07T08:02:06.930Z,12.91
2023-05-07T08:04:34.827Z,12.95
2023-05-07T08:07:04.697Z,12.91
2023-05-07T08:09:33.039Z,12.94
2023-05-07T08:12:00.935Z,13.12
2023-05-07T08:14:29.465Z,13.35
2023-05-07T08:16:57.590Z,13.39
2023-05-07T08:19:24.873Z,13.37
2023-05-07T08:21:52.120Z,13.29
2023-05-07T08:24:19.708Z,13.27
2023-05-07T08:26:47.738Z,13.21
2023-05-07T08:29:15.721Z,13.14
2023-05-07T08:31:43.197Z,13.21
2023-05-07T08:34:10.448Z,13.26
2023-05-07T08:36:39.732Z,13.30
2023-05-07T08:39:07.082Z,13.38
2023-05-07T08:41:34.586Z,13.40
2023-05-07T08:44:03.960Z,13.45
2023-05-07T08:46:33.026Z,13.46
2023-05-07T08:49:00.177Z,13.51
2023-05-07T08:51:28.401Z,13.64
2023-05-07T08:53:56.014Z,13.76
2023-05-07T08:56:26.382Z,13.81
2023-05-07T08:58:57.709Z,13.90
2023-05-07T09:01:25.217Z,13.92
2023-05-07T09:03:52.979Z,14.07
2023-05-07T09:06:20.801Z,14.08
2023-05-07T09:08:52.425Z,13.94
2023-05-07T09:11:26.070Z,13.83
2023-05-07T09:13:58.833Z,13.92
2023-05-07T09:16:26.572Z,13.92
2023-05-07T09:18:54.638Z,14.08
2023-05-07T09:21:23.856Z,14.25
2023-05-07T09:23:52.424Z,14.20
2023-05-07T09:26:23.031Z,14.15
2023-05-07T09:28:50.284Z,14.13
2023-05-07T09:31:20.326Z,14.23
2023-05-07T09:33:48.524Z,14.36
2023-05-07T09:36:16.032Z,14.42
2023-05-07T09:38:43.201Z,14.47
2023-05-07T09:41:13.157Z,14.53
2023-05-07T09:44:03.264Z,14.55
2023-05-07T09:46:36.476Z,14.63
2023-05-07T09:49:10.930Z,14.65
2023-05-07T09:51:44.749Z,14.62
2023-05-07T09:54:11.980Z,14.67
2023-05-07T09:56:40.161Z,14.78
2023-05-07T09:59:07.379Z,14.81
2023-05-07T10:01:34.970Z,14.92
2023-05-07T10:04:03.563Z,15.12
2023-05-07T10:06:31.495Z,15.16
2023-05-07T10:08:59.717Z,15.18
2023-05-07T10:11:26.804Z,15.24
2023-05-07T10:13:53.950Z,15.22
2023-05-07T10:16:22.393Z,15.22
2023-05-07T10:18:50.027Z,15.17
2023-05-07T10:21:21.385Z,15.13
2023-05-07T10:24:03.004Z,15.21
2023-05-07T10:26:31.155Z,15.26
2023-05-07T10:29:05.488Z,15.22
2023-05-07T10:32:06.790Z,15.34
2023-05-07T10:34:39.090Z,15.51
2023-05-07T10:37:06.524Z,15.55
2023-05-07T10:39:33.600Z,15.53
2023-05-07T10:42:14.213Z,15.61
2023-05-07T10:44:45.462Z,15.83
2023-05-07T10:47:19.899Z,15.89
2023-05-07T10:49:49.138Z,15.84
2023-05-07T10:52:25.432Z,15.82
2023-05-07T10:55:26.698Z,15.84
2023-05-07T11:01:18.323Z,16.08
2023-05-07T11:04:16.111Z,16.10
2023-05-07T11:07:11.252Z,16.10
2023-05-07T11:09:54.901Z,15.93
2023-05-07T11:12:39.462Z,15.94
2023-05-07T11:15:13.149Z,16.02
2023-05-07T11:17:54.227Z,16.19
2023-05-07T11:20:21.782Z,16.22
2023-05-07T11:22:56.052Z,16.32
2023-05-07T11:25:31.578Z,16.46
2023-05-07T11:28:13.143Z,16.56
2023-05-07T11:30:47.955Z,16.56
2023-05-07T11:33:18.622Z,16.45
2023-05-07T11:35:46.634Z,16.36
2023-05-07T11:38:14.294Z,16.41
2023-05-07T11:40:52.148Z,16.37
2023-05-07T11:43:19.196Z,16.43
2023-05-07T11:45:47.580Z,16.50
2023-05-07T11:48:15.003Z,16.42
2023-05-07T11:51:10.976Z,16.32
2023-05-07T11:53:39.595Z,16.31
2023-05-07T11:56:08.683Z,16.26
2023-05-07T11:58:35.764Z,16.09
2023-05-07T12:01:02.804Z,15.92
2023-05-07T12:03:31.916Z,15.83
2023-05-07T12:06:02.658Z,15.77
2023-05-07T12:08:29.635Z,15.70
2023-05-07T12:10:56.609Z,15.68
2023-05-07T12:13:25.423Z,15.75
2023-05-07T12:15:53.281Z,15.87
2023-05-07T12:18:20.470Z,16.05
2023-05-07T12:20:47.468Z,16.25
2023-05-07T12:23:14.642Z,16.37
2023-05-07T12:25:48.968Z,16.44
2023-05-07T12:28:17.184Z,16.49
2023-05-07T12:30:45.757Z,16.41
2023-05-07T12:33:13.051Z,16.32
2023-05-07T12:35:44.503Z,16.25
2023-05-07T12:38:13.074Z,16.16
2023-05-07T12:40:48.353Z,16.03
2023-05-07T12:43:23.500Z,15.93
2023-05-07T12:45:51.636Z,15.90
2023-05-07T12:48:19.016Z,15.94
2023-05-07T12:50:46.114Z,16.01
2023-05-07T12:53:13.635Z,16.08
2023-05-07T12:55:48.822Z,16.06
2023-05-07T12:58:19.995Z,16.08
2023-05-07T13:00:49.520Z,16.20
2023-05-07T13:03:30.921Z,16.27
2023-05-07T13:06:03.685Z,16.31
2023-05-07T13:08:34.632Z,16.28
2023-05-07T13:11:05.863Z,16.14
2023-05-07T13:13:33.507Z,16.08
2023-05-07T13:16:01.658Z,16.10
2023-05-07T13:18:33.784Z,16.23
2023-05-07T13:21:01.502Z,16.32
2023-05-07T13:23:28.943Z,16.26
2023-05-07T13:25:57.058Z,16.16
2023-05-07T13:28:25.192Z,15.99
2023-05-07T13:30:53.147Z,15.84
2023-05-07T13:33:20.138Z,15.79
2023-05-07T13:35:47.145Z,15.83
2023-05-07T13:38:14.230Z,15.96
2023-05-07T13:40:41.271Z,16.03
2023-05-07T13:43:09.124Z,16.05
2023-05-07T13:45:36.202Z,16.16
2023-05-07T13:48:03.426Z,16.25
2023-05-07T13:50:31.184Z,16.19
2023-05-07T13:52:58.285Z,16.21
2023-05-07T13:55:26.018Z,16.25
2023-05-07T13:58:00.167Z,16.21
2023-05-07T14:00:28.387Z,16.12
2023-05-07T14:02:56.438Z,16.12
2023-05-07T14:05:28.003Z,16.13
2023-05-07T14:09:03.507Z,16.13
2023-05-07T14:11:31.005Z,16.19
2023-05-07T14:13:59.743Z,16.20
2023-05-07T14:16:26.821Z,16.19
2023-05-07T14:18:58.018Z,16.19
2023-05-07T14:21:25.651Z,16.13
2023-05-07T14:23:52.771Z,16.05
2023-05-07T14:26:20.519Z,15.94
2023-05-07T14:28:47.788Z,15.89
2023-05-07T14:31:15.094Z,15.89
2023-05-07T14:33:42.408Z,15.92
2023-05-07T14:36:09.614Z,15.98
2023-05-07T14:38:36.613Z,16.02
2023-05-07T14:41:04.529Z,15.96
2023-05-07T14:43:31.515Z,15.91
2023-05-07T14:45:58.602Z,15.87
2023-05-07T14:48:25.894Z,15.79
2023-05-07T14:50:52.875Z,15.73
2023-05-07T14:53:19.874Z,15.64
2023-05-07T14:55:47.259Z,15.60
2023-05-07T14:58:14.664Z,15.52
2023-05-07T15:00:41.717Z,15.47
2023-05-07T15:03:10.892Z,15.40
2023-05-07T15:05:38.806Z,15.32
2023-05-07T15:08:06.427Z,15.28
2023-05-07T15:10:41.507Z,15.29
2023-05-07T15:13:11.746Z,15.30
2023-05-07T15:15:40.941Z,15.27
2023-05-07T15:18:08.390Z,15.28
2023-05-07T15:20:36.319Z,15.26
2023-05-07T15:23:06.113Z,15.27
2023-05-07T15:25:35.068Z,15.29
2023-05-07T15:28:02.208Z,15.27
2023-05-07T15:30:29.283Z,15.23
2023-05-07T15:32:56.996Z,15.12
2023-05-07T15:35:24.660Z,15.01
2023-05-07T15:37:51.771Z,14.92
2023-05-07T15:40:20.157Z,14.85
2023-05-07T15:42:47.207Z,14.82
2023-05-07T15:45:14.475Z,14.76
2023-05-07T15:47:41.791Z,14.71
2023-05-07T15:50:09.366Z,14.69
2023-05-07T15:52:36.660Z,14.66
2023-05-07T15:55:03.924Z,14.61
2023-05-07T15:57:32.275Z,14.54
2023-05-07T15:59:59.367Z,14.44
2023-05-07T16:02:26.980Z,14.39
2023-05-07T16:04:54.559Z,14.34
2023-05-07T16:07:21.694Z,14.30
2023-05-07T16:09:49.034Z,14.27
2023-05-07T16:12:17.085Z,14.24
2023-05-07T16:14:44.221Z,14.20
2023-05-07T16:17:11.209Z,14.13
2023-05-07T16:19:38.224Z,14.05
2023-05-07T16:22:05.303Z,13.94
2023-05-07T16:24:32.950Z,13.80
2023-05-07T16:27:00.029Z,13.67
2023-05-07T16:29:27.072Z,13.56
2023-05-07T16:31:54.521Z,13.47
2023-05-07T16:34:23.004Z,13.36
2023-05-07T16:36:50.217Z,13.25
2023-05-07T16:39:17.716Z,13.13
2023-05-07T16:41:48.852Z,13.01
2023-05-07T16:44:15.892Z,12.91
2023-05-07T16:46:43.179Z,12.80
2023-05-07T16:49:10.797Z,12.70
2023-05-07T16:51:38.603Z,12.60
2023-05-07T16:54:05.680Z,12.51
2023-05-07T16:56:32.648Z,12.43
2023-05-07T16:58:59.694Z,12.34
2023-05-07T17:01:26.775Z,12.24
2023-05-07T17:03:54.239Z,12.17
2023-05-07T17:06:21.353Z,12.11
2023-05-07T17:08:48.469Z,12.06
2023-05-07T17:11:15.502Z,12.01
2023-05-07T17:13:42.557Z,11.96
2023-05-07T17:16:09.896Z,11.90
2023-05-07T17:18:37.074Z,11.84
2023-05-07T17:21:04.250Z,11.79
2023-05-07T17:23:31.326Z,11.73
2023-05-07T17:25:58.365Z,11.65
2023-05-07T17:28:25.448Z,11.58
2023-05-07T17:30:52.433Z,11.51
2023-05-07T17:33:21.932Z,11.44
2023-05-07T17:35:49.879Z,11.37
2023-05-07T17:38:16.952Z,11.31
2023-05-07T17:40:44.722Z,11.23
2023-05-07T17:43:11.700Z,11.16
2023-05-07T17:45:38.730Z,11.10
2023-05-07T17:48:05.945Z,11.05
2023-05-07T17:50:33.236Z,11.00
2023-05-07T17:53:00.987Z,10.95
2023-05-07T17:55:28.656Z,10.90
2023-05-07T17:57:56.813Z,10.86
2023-05-07T18:00:23.944Z,10.81
2023-05-07T18:02:54.171Z,10.76
2023-05-07T18:05:21.535Z,10.71
2023-05-07T18:07:48.552Z,10.65
2023-05-07T18:10:15.627Z,10.58
2023-05-07T18:12:42.838Z,10.55
2023-05-07T18:15:10.152Z,10.53
2023-05-07T18:17:37.411Z,10.50
2023-05-07T18:20:06.552Z,10.46
2023-05-07T18:22:33.682Z,10.42
2023-05-07T18:25:01.215Z,10.37
2023-05-07T18:27:29.344Z,10.31
2023-05-07T18:29:56.460Z,10.26
2023-05-07T18:32:23.586Z,10.22
2023-05-07T18:34:50.808Z,10.19
2023-05-07T18:37:18.119Z,10.15
2023-05-07T18:39:46.295Z,10.11
2023-05-07T18:42:13.763Z,10.09
2023-05-07T18:44:40.901Z,10.08
2023-05-07T18:47:07.956Z,10.06
2023-05-07T18:49:35.220Z,10.05
2023-05-07T18:52:02.335Z,10.04
2023-05-07T18:54:29.416Z,10.02
2023-05-07T18:56:56.408Z,10.01
2023-05-07T18:59:23.521Z,10.00
2023-05-07T19:01:50.806Z,9.99
2023-05-07T19:04:18.564Z,9.96
2023-05-07T19:06:46.286Z,9.92
2023-05-07T19:09:13.278Z,9.90
2023-05-07T19:11:40.345Z,9.89
2023-05-07T19:14:09.925Z,9.86
2023-05-07T19:16:37.578Z,9.82
2023-05-07T19:19:07.178Z,9.77
2023-05-07T19:21:34.185Z,9.73
2023-05-07T19:24:01.172Z,9.68
2023-05-07T19:26:29.073Z,9.63
2023-05-07T19:29:12.265Z,9.59
2023-05-07T19:31:44.204Z,9.56
2023-05-07T19:34:13.437Z,9.53
2023-05-07T19:36:40.577Z,9.51
2023-05-07T19:39:07.878Z,9.48
2023-05-07T19:41:35.072Z,9.46
2023-05-07T19:44:02.300Z,9.43
2023-05-07T19:46:30.061Z,9.41
2023-05-07T19:48:57.063Z,9.38
2023-05-07T19:51:24.109Z,9.35
2023-05-07T19:53:51.644Z,9.32
2023-05-07T19:56:18.621Z,9.27
2023-05-07T19:58:45.682Z,9.23
2023-05-07T20:01:12.761Z,9.20
2023-05-07T20:03:40.035Z,9.15
2023-05-07T20:06:07.269Z,9.12
2023-05-07T20:08:34.308Z,9.07
2023-05-07T20:11:01.359Z,9.03
2023-05-07T20:13:28.617Z,8.98
2023-05-07T20:15:59.771Z,8.92
2023-05-07T20:18:27.793Z,8.89
2023-05-07T20:20:55.149Z,8.85
2023-05-07T20:23:22.465Z,8.82
2023-05-07T20:25:50.574Z,8.77
2023-05-07T20:28:17.748Z,8.74
2023-05-07T20:30:44.819Z,8.72
2023-05-07T20:33:12.757Z,8.70
2023-05-07T20:35:39.817Z,8.70
2023-05-07T20:38:06.904Z,8.72
2023-05-07T20:40:37.172Z,8.73
2023-05-07T20:43:07.278Z,8.74
2023-05-07T20:45:34.387Z,8.76
2023-05-07T20:48:01.457Z,8.77
2023-05-07T20:50:28.998Z,8.78
2023-05-07T20:52:56.129Z,8.78
2023-05-07T20:55:23.172Z,8.78
2023-05-07T20:57:50.275Z,8.78
2023-05-07T21:00:17.997Z,8.79
2023-05-07T21:02:45.363Z,8.80
2023-05-07T21:05:12.611Z,8.82
2023-05-07T21:07:39.625Z,8.83
2023-05-07T21:10:07.135Z,8.83
2023-05-07T21:12:34.115Z,8.85
2023-05-07T21:15:01.196Z,8.86
2023-05-07T21:17:30.726Z,8.85
2023-05-07T21:19:57.784Z,8.84
2023-05-07T21:22:24.903Z,8.85
2023-05-07T21:24:51.881Z,8.85
2023-05-07T21:27:18.955Z,8.86
2023-05-07T21:29:46.345Z,8.86
2023-05-07T21:32:13.352Z,8.87
2023-05-07T21:34:40.443Z,8.88
2023-05-07T21:37:07.526Z,8.88
2023-05-07T21:39:34.583Z,8.87
2023-05-07T21:42:01.988Z,8.87
2023-05-07T21:44:30.117Z,8.86
2023-05-07T21:46:57.249Z,8.86
2023-05-07T21:49:24.225Z,8.85
2023-05-07T21:51:51.244Z,8.84
2023-05-07T21:54:18.391Z,8.83
2023-05-07T21:56:46.570Z,8.82
2023-05-07T21:59:15.001Z,8.80
2023-05-07T22:01:42.010Z,8.78
2023-05-07T22:04:09.020Z,8.77
2023-05-07T22:06:36.211Z,8.76
2023-05-07T22:09:03.748Z,8.74
2023-05-07T22:11:30.800Z,8.73
2023-05-07T22:13:57.828Z,8.70
2023-05-07T22:16:24.893Z,8.68
2023-05-07T22:18:51.949Z,8.64
2023-05-07T22:21:18.956Z,8.62
2023-05-07T22:23:45.968Z,8.60
2023-05-07T22:26:13.550Z,8.58
2023-05-07T22:28:40.697Z,8.57
2023-05-07T22:31:07.819Z,8.56
2023-05-07T22:33:35.404Z,8.56
2023-05-07T22:36:02.458Z,8.56
2023-05-07T22:38:29.487Z,8.56
2023-05-07T22:40:56.512Z,8.56
2023-05-07T22:43:23.542Z,8.57
2023-05-07T22:45:50.616Z,8.59
2023-05-07T22:48:17.646Z,8.59
2023-05-07T22:50:44.667Z,8.61
2023-05-07T22:53:11.717Z,8.62
2023-05-07T22:55:39.623Z,8.64
2023-05-07T22:58:08.242Z,8.66
2023-05-07T23:00:35.300Z,8.68
2023-05-07T23:03:02.442Z,8.69
2023-05-07T23:05:29.699Z,8.72
2023-05-07T23:07:56.771Z,8.73
2023-05-07T23:10:23.765Z,8.74
2023-05-07T23:12:50.970Z,8.74
2023-05-07T23:15:18.691Z,8.75
2023-05-07T23:17:45.896Z,8.76
2023-05-07T23:20:13.742Z,8.78
2023-05-07T23:22:40.952Z,8.78
2023-05-07T23:25:11.508Z,8.78
2023-05-07T23:27:38.570Z,8.77
2023-05-07T23:30:06.564Z,8.76
2023-05-07T23:32:33.594Z,8.75
2023-05-07T23:35:01.102Z,8.75
2023-05-07T23:37:28.086Z,8.74
2023-05-07T23:39:55.199Z,8.73
2023-05-07T23:42:22.227Z,8.73
2023-05-07T23:44:49.219Z,8.74
2023-05-07T23:47:16.219Z,8.73
2023-05-07T23:49:43.258Z,8.71
2023-05-07T23:52:10.425Z,8.70
2023-05-07T23:54:37.454Z,8.69
2023-05-07T23:57:04.853Z,8.69
2023-05-07T23:59:32.194Z,8.66
